Terminal Aerodrome Forecast
Issued by NWS Jacksonville, FL

Home | Current Version | Previous Version | Text Only | Print | Product List | Glossary On
Versions: 1 2 3 4 5 6 7 8 9 10 11 12 13 14 15 16 17 18 19 20 21
000
FTUS42 KJAX 261100
TAFGNV
TAF
KGNV 261120Z 2612/2712 05003KT P6SM SKC
     FM261700 04006KT P6SM SCT035 BKN250
     FM270000 00000KT P6SM BKN250
     FM270600 00000KT 3SM BR BKN035=

USA.gov is the U.S. government's official web portal to all federal, state and local government web resources and services.